sensor_id;sensor_type;location;lat;lon;timestamp;P1;durP1;ratioP1;P2;durP2;ratioP2
47659;SDS011;33403;43.608;1.458;2023-04-07T00:01:19;8.50;;;4.30;;
47659;SDS011;33403;43.608;1.458;2023-04-07T00:03:45;7.80;;;4.28;;
47659;SDS011;33403;43.608;1.458;2023-04-07T00:06:11;8.95;;;4.53;;
47659;SDS011;33403;43.608;1.458;2023-04-07T00:08:37;6.88;;;4.25;;
47659;SDS011;33403;43.608;1.458;2023-04-07T00:11:03;5.90;;;3.72;;
47659;SDS011;33403;43.608;1.458;2023-04-07T00:13:29;9.18;;;4.40;;
47659;SDS011;33403;43.608;1.458;2023-04-07T00:15:54;8.27;;;4.43;;
47659;SDS011;33403;43.608;1.458;2023-04-07T00:18:20;6.68;;;4.45;;
47659;SDS011;33403;43.608;1.458;2023-04-07T00:20:46;5.78;;;4.38;;
47659;SDS011;33403;43.608;1.458;2023-04-07T00:23:11;6.28;;;4.25;;
47659;SDS011;33403;43.608;1.458;2023-04-07T00:25:37;6.25;;;4.07;;
47659;SDS011;33403;43.608;1.458;2023-04-07T00:28:03;6.70;;;4.10;;
47659;SDS011;33403;43.608;1.458;2023-04-07T00:30:28;4.53;;;3.47;;
47659;SDS011;33403;43.608;1.458;2023-04-07T00:32:54;5.88;;;3.65;;
47659;SDS011;33403;43.608;1.458;2023-04-07T00:35:20;5.13;;;3.30;;
47659;SDS011;33403;43.608;1.458;2023-04-07T00:37:46;4.72;;;3.70;;
47659;SDS011;33403;43.608;1.458;2023-04-07T00:40:12;4.38;;;3.30;;
47659;SDS011;33403;43.608;1.458;2023-04-07T00:42:37;6.38;;;3.28;;
47659;SDS011;33403;43.608;1.458;2023-04-07T00:45:03;4.82;;;3.30;;
47659;SDS011;33403;43.608;1.458;2023-04-07T00:47:30;7.78;;;3.83;;
47659;SDS011;33403;43.608;1.458;2023-04-07T00:49:55;6.28;;;3.90;;
47659;SDS011;33403;43.608;1.458;2023-04-07T00:52:21;5.82;;;3.60;;
47659;SDS011;33403;43.608;1.458;2023-04-07T00:54:53;6.70;;;3.40;;
47659;SDS011;33403;43.608;1.458;2023-04-07T00:57:19;7.30;;;4.00;;
47659;SDS011;33403;43.608;1.458;2023-04-07T00:59:46;6.03;;;3.67;;
47659;SDS011;33403;43.608;1.458;2023-04-07T01:04:53;4.18;;;3.28;;
47659;SDS011;33403;43.608;1.458;2023-04-07T01:07:38;5.57;;;3.63;;
47659;SDS011;33403;43.608;1.458;2023-04-07T01:13:24;4.95;;;3.80;;
47659;SDS011;33403;43.608;1.458;2023-04-07T01:15:54;6.18;;;3.90;;
47659;SDS011;33403;43.608;1.458;2023-04-07T01:18:27;4.75;;;3.40;;
47659;SDS011;33403;43.608;1.458;2023-04-07T01:21:04;5.70;;;3.58;;
47659;SDS011;33403;43.608;1.458;2023-04-07T01:23:38;5.65;;;3.50;;
47659;SDS011;33403;43.608;1.458;2023-04-07T01:28:54;5.40;;;3.60;;
47659;SDS011;33403;43.608;1.458;2023-04-07T01:31:22;5.68;;;3.60;;
47659;SDS011;33403;43.608;1.458;2023-04-07T01:33:50;4.65;;;3.65;;
47659;SDS011;33403;43.608;1.458;2023-04-07T01:36:17;5.15;;;3.60;;
47659;SDS011;33403;43.608;1.458;2023-04-07T01:38:45;4.45;;;3.40;;
47659;SDS011;33403;43.608;1.458;2023-04-07T01:41:12;7.10;;;3.50;;
47659;SDS011;33403;43.608;1.458;2023-04-07T01:43:40;5.80;;;3.83;;
47659;SDS011;33403;43.608;1.458;2023-04-07T01:46:07;4.30;;;3.58;;
47659;SDS011;33403;43.608;1.458;2023-04-07T01:48:33;4.72;;;3.30;;
47659;SDS011;33403;43.608;1.458;2023-04-07T01:51:00;6.13;;;3.50;;
47659;SDS011;33403;43.608;1.458;2023-04-07T01:53:28;4.15;;;3.42;;
47659;SDS011;33403;43.608;1.458;2023-04-07T01:55:54;7.00;;;3.88;;
47659;SDS011;33403;43.608;1.458;2023-04-07T01:58:20;6.88;;;3.50;;
47659;SDS011;33403;43.608;1.458;2023-04-07T02:00:46;6.22;;;3.83;;
47659;SDS011;33403;43.608;1.458;2023-04-07T02:03:17;6.78;;;3.85;;
47659;SDS011;33403;43.608;1.458;2023-04-07T02:05:47;5.38;;;3.70;;
47659;SDS011;33403;43.608;1.458;2023-04-07T02:08:16;4.40;;;3.60;;
47659;SDS011;33403;43.608;1.458;2023-04-07T02:10:45;5.60;;;3.58;;
47659;SDS011;33403;43.608;1.458;2023-04-07T02:13:14;7.07;;;4.10;;
47659;SDS011;33403;43.608;1.458;2023-04-07T02:15:41;4.95;;;3.67;;
47659;SDS011;33403;43.608;1.458;2023-04-07T02:18:09;5.85;;;3.70;;
47659;SDS011;33403;43.608;1.458;2023-04-07T02:20:37;4.65;;;3.40;;
47659;SDS011;33403;43.608;1.458;2023-04-07T02:23:06;6.18;;;4.00;;
47659;SDS011;33403;43.608;1.458;2023-04-07T02:25:35;5.55;;;3.83;;
47659;SDS011;33403;43.608;1.458;2023-04-07T02:28:04;5.53;;;3.50;;
47659;SDS011;33403;43.608;1.458;2023-04-07T02:30:33;5.68;;;3.83;;
47659;SDS011;33403;43.608;1.458;2023-04-07T02:33:00;6.18;;;3.53;;
47659;SDS011;33403;43.608;1.458;2023-04-07T02:35:26;6.10;;;3.40;;
47659;SDS011;33403;43.608;1.458;2023-04-07T02:37:52;4.68;;;3.40;;
47659;SDS011;33403;43.608;1.458;2023-04-07T02:40:17;5.28;;;3.67;;
47659;SDS011;33403;43.608;1.458;2023-04-07T02:42:43;7.22;;;3.60;;
47659;SDS011;33403;43.608;1.458;2023-04-07T02:45:10;4.85;;;3.40;;
47659;SDS011;33403;43.608;1.458;2023-04-07T02:47:36;5.75;;;3.92;;
47659;SDS011;33403;43.608;1.458;2023-04-07T02:50:02;4.53;;;3.63;;
47659;SDS011;33403;43.608;1.458;2023-04-07T02:52:28;5.45;;;3.90;;
47659;SDS011;33403;43.608;1.458;2023-04-07T02:54:54;5.07;;;3.83;;
47659;SDS011;33403;43.608;1.458;2023-04-07T02:57:20;6.40;;;3.97;;
47659;SDS011;33403;43.608;1.458;2023-04-07T02:59:45;5.45;;;3.90;;
47659;SDS011;33403;43.608;1.458;2023-04-07T03:02:11;6.55;;;3.88;;
47659;SDS011;33403;43.608;1.458;2023-04-07T03:04:37;5.00;;;3.70;;
47659;SDS011;33403;43.608;1.458;2023-04-07T03:07:02;6.72;;;4.05;;
47659;SDS011;33403;43.608;1.458;2023-04-07T03:09:28;6.90;;;3.70;;
47659;SDS011;33403;43.608;1.458;2023-04-07T03:11:54;6.57;;;4.40;;
47659;SDS011;33403;43.608;1.458;2023-04-07T03:14:19;7.53;;;4.78;;
47659;SDS011;33403;43.608;1.458;2023-04-07T03:16:45;6.63;;;3.90;;
47659;SDS011;33403;43.608;1.458;2023-04-07T03:19:11;7.22;;;3.83;;
47659;SDS011;33403;43.608;1.458;2023-04-07T03:21:36;5.57;;;3.92;;
47659;SDS011;33403;43.608;1.458;2023-04-07T03:24:03;5.78;;;3.85;;
47659;SDS011;33403;43.608;1.458;2023-04-07T03:26:30;6.00;;;4.10;;
47659;SDS011;33403;43.608;1.458;2023-04-07T03:28:55;5.55;;;3.70;;
47659;SDS011;33403;43.608;1.458;2023-04-07T03:31:21;5.13;;;4.10;;
47659;SDS011;33403;43.608;1.458;2023-04-07T03:33:48;4.28;;;3.65;;
47659;SDS011;33403;43.608;1.458;2023-04-07T03:36:14;4.72;;;3.70;;
47659;SDS011;33403;43.608;1.458;2023-04-07T03:38:39;4.80;;;3.58;;
47659;SDS011;33403;43.608;1.458;2023-04-07T03:41:05;6.07;;;4.05;;
47659;SDS011;33403;43.608;1.458;2023-04-07T03:43:31;6.32;;;3.92;;
47659;SDS011;33403;43.608;1.458;2023-04-07T03:45:56;4.97;;;3.93;;
47659;SDS011;33403;43.608;1.458;2023-04-07T03:48:22;7.40;;;3.75;;
47659;SDS011;33403;43.608;1.458;2023-04-07T03:50:48;6.43;;;3.60;;
47659;SDS011;33403;43.608;1.458;2023-04-07T03:53:13;5.78;;;3.67;;
47659;SDS011;33403;43.608;1.458;2023-04-07T03:55:40;5.82;;;4.00;;
47659;SDS011;33403;43.608;1.458;2023-04-07T03:58:06;6.63;;;4.05;;
47659;SDS011;33403;43.608;1.458;2023-04-07T04:00:33;5.45;;;3.60;;
47659;SDS011;33403;43.608;1.458;2023-04-07T04:02:59;6.55;;;3.90;;
47659;SDS011;33403;43.608;1.458;2023-04-07T04:05:25;6.78;;;3.72;;
47659;SDS011;33403;43.608;1.458;2023-04-07T04:07:51;5.50;;;3.78;;
47659;SDS011;33403;43.608;1.458;2023-04-07T04:10:17;5.80;;;3.75;;
47659;SDS011;33403;43.608;1.458;2023-04-07T04:12:43;4.32;;;3.40;;
47659;SDS011;33403;43.608;1.458;2023-04-07T04:15:10;4.85;;;3.78;;
47659;SDS011;33403;43.608;1.458;2023-04-07T04:17:35;4.68;;;3.70;;
47659;SDS011;33403;43.608;1.458;2023-04-07T04:20:01;6.28;;;3.97;;
47659;SDS011;33403;43.608;1.458;2023-04-07T04:22:27;6.70;;;3.78;;
47659;SDS011;33403;43.608;1.458;2023-04-07T04:24:53;7.35;;;3.70;;
47659;SDS011;33403;43.608;1.458;2023-04-07T04:27:18;6.27;;;3.60;;
47659;SDS011;33403;43.608;1.458;2023-04-07T04:29:45;5.93;;;3.90;;
47659;SDS011;33403;43.608;1.458;2023-04-07T04:32:11;4.07;;;3.50;;
47659;SDS011;33403;43.608;1.458;2023-04-07T04:34:36;5.03;;;3.80;;
47659;SDS011;33403;43.608;1.458;2023-04-07T04:37:03;5.15;;;3.90;;
47659;SDS011;33403;43.608;1.458;2023-04-07T04:39:29;6.63;;;3.80;;
47659;SDS011;33403;43.608;1.458;2023-04-07T04:41:55;6.38;;;3.83;;
47659;SDS011;33403;43.608;1.458;2023-04-07T04:44:21;5.33;;;3.90;;
47659;SDS011;33403;43.608;1.458;2023-04-07T04:46:47;5.55;;;3.60;;
47659;SDS011;33403;43.608;1.458;2023-04-07T04:49:12;6.27;;;3.80;;
47659;SDS011;33403;43.608;1.458;2023-04-07T04:51:40;6.73;;;4.00;;
47659;SDS011;33403;43.608;1.458;2023-04-07T04:54:06;6.07;;;4.05;;
47659;SDS011;33403;43.608;1.458;2023-04-07T04:56:32;7.68;;;4.13;;
47659;SDS011;33403;43.608;1.458;2023-04-07T04:58:58;6.43;;;3.80;;
47659;SDS011;33403;43.608;1.458;2023-04-07T05:01:23;5.00;;;3.80;;
47659;SDS011;33403;43.608;1.458;2023-04-07T05:03:49;7.68;;;3.80;;
47659;SDS011;33403;43.608;1.458;2023-04-07T05:06:15;4.87;;;3.53;;
47659;SDS011;33403;43.608;1.458;2023-04-07T05:08:40;5.30;;;4.10;;
47659;SDS011;33403;43.608;1.458;2023-04-07T05:11:06;6.65;;;4.20;;
47659;SDS011;33403;43.608;1.458;2023-04-07T05:13:31;7.15;;;4.18;;
47659;SDS011;33403;43.608;1.458;2023-04-07T05:15:58;6.60;;;4.20;;
47659;SDS011;33403;43.608;1.458;2023-04-07T05:18:23;9.37;;;4.00;;
47659;SDS011;33403;43.608;1.458;2023-04-07T05:20:49;7.77;;;4.13;;
47659;SDS011;33403;43.608;1.458;2023-04-07T05:23:15;7.33;;;4.03;;
47659;SDS011;33403;43.608;1.458;2023-04-07T05:25:40;6.87;;;4.40;;
47659;SDS011;33403;43.608;1.458;2023-04-07T05:28:07;7.00;;;4.60;;
47659;SDS011;33403;43.608;1.458;2023-04-07T05:30:32;7.00;;;4.30;;
47659;SDS011;33403;43.608;1.458;2023-04-07T05:32:58;9.83;;;4.53;;
47659;SDS011;33403;43.608;1.458;2023-04-07T05:35:24;9.03;;;4.60;;
47659;SDS011;33403;43.608;1.458;2023-04-07T05:37:49;8.80;;;4.90;;
47659;SDS011;33403;43.608;1.458;2023-04-07T05:40:15;7.10;;;4.43;;
47659;SDS011;33403;43.608;1.458;2023-04-07T05:42:41;7.68;;;4.35;;
47659;SDS011;33403;43.608;1.458;2023-04-07T05:45:08;8.67;;;4.70;;
47659;SDS011;33403;43.608;1.458;2023-04-07T05:47:34;8.53;;;4.70;;
47659;SDS011;33403;43.608;1.458;2023-04-07T05:50:00;6.97;;;4.63;;
47659;SDS011;33403;43.608;1.458;2023-04-07T05:52:26;7.13;;;4.73;;
47659;SDS011;33403;43.608;1.458;2023-04-07T05:54:51;10.03;;;4.67;;
47659;SDS011;33403;43.608;1.458;2023-04-07T05:57:17;8.60;;;5.30;;
47659;SDS011;33403;43.608;1.458;2023-04-07T05:59:43;7.53;;;4.80;;
47659;SDS011;33403;43.608;1.458;2023-04-07T06:02:08;8.90;;;5.25;;
47659;SDS011;33403;43.608;1.458;2023-04-07T06:04:34;8.50;;;4.83;;
47659;SDS011;33403;43.608;1.458;2023-04-07T06:07:00;10.10;;;5.53;;
47659;SDS011;33403;43.608;1.458;2023-04-07T06:09:26;8.60;;;4.93;;
47659;SDS011;33403;43.608;1.458;2023-04-07T06:11:52;9.23;;;5.13;;
47659;SDS011;33403;43.608;1.458;2023-04-07T06:14:18;8.97;;;4.57;;
47659;SDS011;33403;43.608;1.458;2023-04-07T06:16:43;7.07;;;4.60;;
47659;SDS011;33403;43.608;1.458;2023-04-07T06:19:09;10.47;;;5.17;;
47659;SDS011;33403;43.608;1.458;2023-04-07T06:21:35;9.17;;;5.00;;
47659;SDS011;33403;43.608;1.458;2023-04-07T06:24:00;8.87;;;5.13;;
47659;SDS011;33403;43.608;1.458;2023-04-07T06:26:26;10.83;;;5.20;;
47659;SDS011;33403;43.608;1.458;2023-04-07T06:28:52;9.57;;;5.13;;
47659;SDS011;33403;43.608;1.458;2023-04-07T06:31:18;14.15;;;5.20;;
47659;SDS011;33403;43.608;1.458;2023-04-07T06:33:44;11.60;;;5.97;;
47659;SDS011;33403;43.608;1.458;2023-04-07T06:36:12;9.70;;;5.47;;
47659;SDS011;33403;43.608;1.458;2023-04-07T06:38:38;10.70;;;5.77;;
47659;SDS011;33403;43.608;1.458;2023-04-07T06:41:04;11.40;;;5.72;;
47659;SDS011;33403;43.608;1.458;2023-04-07T06:43:30;11.03;;;5.07;;
47659;SDS011;33403;43.608;1.458;2023-04-07T06:45:56;8.67;;;5.40;;
47659;SDS011;33403;43.608;1.458;2023-04-07T06:48:21;12.33;;;5.90;;
47659;SDS011;33403;43.608;1.458;2023-04-07T06:50:50;13.07;;;5.60;;
47659;SDS011;33403;43.608;1.458;2023-04-07T06:53:16;14.23;;;5.50;;
47659;SDS011;33403;43.608;1.458;2023-04-07T06:55:42;8.87;;;5.07;;
47659;SDS011;33403;43.608;1.458;2023-04-07T06:58:07;12.13;;;5.10;;
47659;SDS011;33403;43.608;1.458;2023-04-07T07:00:33;11.43;;;5.30;;
47659;SDS011;33403;43.608;1.458;2023-04-07T07:03:00;8.60;;;5.17;;
47659;SDS011;33403;43.608;1.458;2023-04-07T07:05:25;10.57;;;5.60;;
47659;SDS011;33403;43.608;1.458;2023-04-07T07:07:51;11.87;;;5.60;;
47659;SDS011;33403;43.608;1.458;2023-04-07T07:10:17;11.83;;;5.53;;
47659;SDS011;33403;43.608;1.458;2023-04-07T07:12:44;10.03;;;5.93;;
47659;SDS011;33403;43.608;1.458;2023-04-07T07:15:10;11.53;;;5.60;;
47659;SDS011;33403;43.608;1.458;2023-04-07T07:17:36;10.33;;;5.87;;
47659;SDS011;33403;43.608;1.458;2023-04-07T07:20:01;13.63;;;5.63;;
47659;SDS011;33403;43.608;1.458;2023-04-07T07:22:27;14.67;;;6.20;;
47659;SDS011;33403;43.608;1.458;2023-04-07T07:24:53;12.50;;;6.20;;
47659;SDS011;33403;43.608;1.458;2023-04-07T07:27:19;14.97;;;6.63;;
47659;SDS011;33403;43.608;1.458;2023-04-07T07:29:44;11.77;;;5.80;;
47659;SDS011;33403;43.608;1.458;2023-04-07T07:32:10;11.30;;;5.97;;
47659;SDS011;33403;43.608;1.458;2023-04-07T07:34:36;14.63;;;6.68;;
47659;SDS011;33403;43.608;1.458;2023-04-07T07:37:01;12.77;;;6.07;;
47659;SDS011;33403;43.608;1.458;2023-04-07T07:39:27;13.20;;;6.30;;
47659;SDS011;33403;43.608;1.458;2023-04-07T07:41:53;11.23;;;5.93;;
47659;SDS011;33403;43.608;1.458;2023-04-07T07:44:20;10.67;;;5.67;;
47659;SDS011;33403;43.608;1.458;2023-04-07T07:46:47;14.43;;;5.95;;
47659;SDS011;33403;43.608;1.458;2023-04-07T07:49:13;12.85;;;5.70;;
47659;SDS011;33403;43.608;1.458;2023-04-07T07:51:38;8.30;;;5.22;;
47659;SDS011;33403;43.608;1.458;2023-04-07T07:54:04;10.67;;;5.50;;
47659;SDS011;33403;43.608;1.458;2023-04-07T07:56:30;8.93;;;5.63;;
47659;SDS011;33403;43.608;1.458;2023-04-07T07:58:55;12.63;;;5.85;;
47659;SDS011;33403;43.608;1.458;2023-04-07T08:01:21;10.55;;;5.20;;
47659;SDS011;33403;43.608;1.458;2023-04-07T08:03:47;9.27;;;5.40;;
47659;SDS011;33403;43.608;1.458;2023-04-07T08:06:12;11.88;;;5.35;;
47659;SDS011;33403;43.608;1.458;2023-04-07T08:08:38;12.93;;;6.10;;
47659;SDS011;33403;43.608;1.458;2023-04-07T08:11:04;9.75;;;5.95;;
47659;SDS011;33403;43.608;1.458;2023-04-07T08:13:30;9.25;;;5.32;;
47659;SDS011;33403;43.608;1.458;2023-04-07T08:15:55;10.40;;;6.00;;
47659;SDS011;33403;43.608;1.458;2023-04-07T08:18:21;8.65;;;5.95;;
47659;SDS011;33403;43.608;1.458;2023-04-07T08:20:47;9.30;;;5.97;;
47659;SDS011;33403;43.608;1.458;2023-04-07T08:23:12;11.27;;;5.57;;
47659;SDS011;33403;43.608;1.458;2023-04-07T08:25:38;9.43;;;5.47;;
47659;SDS011;33403;43.608;1.458;2023-04-07T08:28:04;11.75;;;5.65;;
47659;SDS011;33403;43.608;1.458;2023-04-07T08:30:30;11.13;;;6.07;;
47659;SDS011;33403;43.608;1.458;2023-04-07T08:32:56;7.72;;;5.45;;
47659;SDS011;33403;43.608;1.458;2023-04-07T08:35:22;9.65;;;4.97;;
47659;SDS011;33403;43.608;1.458;2023-04-07T08:37:47;7.45;;;5.22;;
47659;SDS011;33403;43.608;1.458;2023-04-07T08:40:14;9.02;;;5.43;;
47659;SDS011;33403;43.608;1.458;2023-04-07T08:42:41;10.18;;;5.40;;
47659;SDS011;33403;43.608;1.458;2023-04-07T08:45:11;10.55;;;5.55;;
47659;SDS011;33403;43.608;1.458;2023-04-07T08:47:39;7.45;;;5.22;;
47659;SDS011;33403;43.608;1.458;2023-04-07T08:50:11;8.82;;;5.20;;
47659;SDS011;33403;43.608;1.458;2023-04-07T08:52:56;8.30;;;5.35;;
47659;SDS011;33403;43.608;1.458;2023-04-07T08:55:25;6.22;;;4.78;;
47659;SDS011;33403;43.608;1.458;2023-04-07T08:57:51;6.55;;;4.68;;
47659;SDS011;33403;43.608;1.458;2023-04-07T09:00:17;7.72;;;4.72;;
47659;SDS011;33403;43.608;1.458;2023-04-07T09:02:43;9.75;;;4.85;;
47659;SDS011;33403;43.608;1.458;2023-04-07T09:05:09;8.40;;;5.03;;
47659;SDS011;33403;43.608;1.458;2023-04-07T09:07:37;7.90;;;4.65;;
47659;SDS011;33403;43.608;1.458;2023-04-07T09:10:04;7.20;;;4.53;;
47659;SDS011;33403;43.608;1.458;2023-04-07T09:12:30;7.25;;;4.50;;
47659;SDS011;33403;43.608;1.458;2023-04-07T09:14:57;6.72;;;4.85;;
47659;SDS011;33403;43.608;1.458;2023-04-07T09:17:26;8.35;;;4.68;;
47659;SDS011;33403;43.608;1.458;2023-04-07T09:19:55;9.55;;;5.55;;
47659;SDS011;33403;43.608;1.458;2023-04-07T09:22:38;8.15;;;5.00;;
47659;SDS011;33403;43.608;1.458;2023-04-07T09:30:27;7.88;;;4.85;;
47659;SDS011;33403;43.608;1.458;2023-04-07T09:32:55;8.45;;;4.88;;
47659;SDS011;33403;43.608;1.458;2023-04-07T09:35:21;7.85;;;4.63;;
47659;SDS011;33403;43.608;1.458;2023-04-07T09:38:21;7.68;;;4.70;;
47659;SDS011;33403;43.608;1.458;2023-04-07T09:40:40;7.35;;;4.63;;
47659;SDS011;33403;43.608;1.458;2023-04-07T09:43:06;7.65;;;4.82;;
47659;SDS011;33403;43.608;1.458;2023-04-07T09:45:39;6.30;;;4.70;;
47659;SDS011;33403;43.608;1.458;2023-04-07T09:48:05;7.22;;;4.68;;
47659;SDS011;33403;43.608;1.458;2023-04-07T09:50:38;7.15;;;4.70;;
47659;SDS011;33403;43.608;1.458;2023-04-07T09:53:05;9.55;;;4.68;;
47659;SDS011;33403;43.608;1.458;2023-04-07T09:55:31;8.18;;;4.68;;
47659;SDS011;33403;43.608;1.458;2023-04-07T09:57:57;7.97;;;4.70;;
47659;SDS011;33403;43.608;1.458;2023-04-07T10:00:24;8.95;;;4.88;;
47659;SDS011;33403;43.608;1.458;2023-04-07T10:02:50;8.15;;;4.55;;
47659;SDS011;33403;43.608;1.458;2023-04-07T10:05:17;6.80;;;4.03;;
47659;SDS011;33403;43.608;1.458;2023-04-07T10:07:45;6.38;;;3.50;;
47659;SDS011;33403;43.608;1.458;2023-04-07T10:10:11;5.07;;;4.07;;
47659;SDS011;33403;43.608;1.458;2023-04-07T10:12:37;5.60;;;3.75;;
47659;SDS011;33403;43.608;1.458;2023-04-07T10:15:05;6.20;;;3.65;;
47659;SDS011;33403;43.608;1.458;2023-04-07T10:17:31;5.93;;;3.67;;
47659;SDS011;33403;43.608;1.458;2023-04-07T10:20:00;5.45;;;3.78;;
47659;SDS011;33403;43.608;1.458;2023-04-07T10:22:26;6.95;;;4.43;;
47659;SDS011;33403;43.608;1.458;2023-04-07T10:25:05;6.65;;;3.97;;
47659;SDS011;33403;43.608;1.458;2023-04-07T10:27:42;5.05;;;3.80;;
47659;SDS011;33403;43.608;1.458;2023-04-07T10:30:27;6.80;;;4.57;;
47659;SDS011;33403;43.608;1.458;2023-04-07T10:32:54;9.13;;;3.92;;
47659;SDS011;33403;43.608;1.458;2023-04-07T10:35:21;8.63;;;4.43;;
47659;SDS011;33403;43.608;1.458;2023-04-07T10:40:31;4.70;;;3.40;;
47659;SDS011;33403;43.608;1.458;2023-04-07T10:42:57;6.45;;;3.72;;
47659;SDS011;33403;43.608;1.458;2023-04-07T10:48:16;4.65;;;3.00;;
47659;SDS011;33403;43.608;1.458;2023-04-07T10:51:10;5.05;;;3.30;;
47659;SDS011;33403;43.608;1.458;2023-04-07T10:53:34;5.15;;;3.22;;
47659;SDS011;33403;43.608;1.458;2023-04-07T10:56:01;4.07;;;2.85;;
47659;SDS011;33403;43.608;1.458;2023-04-07T10:58:27;3.15;;;2.55;;
47659;SDS011;33403;43.608;1.458;2023-04-07T11:03:24;4.50;;;2.90;;
47659;SDS011;33403;43.608;1.458;2023-04-07T11:05:51;2.80;;;2.50;;
47659;SDS011;33403;43.608;1.458;2023-04-07T11:11:01;2.90;;;2.60;;
47659;SDS011;33403;43.608;1.458;2023-04-07T11:13:38;8.13;;;2.88;;
47659;SDS011;33403;43.608;1.458;2023-04-07T11:16:08;3.95;;;2.90;;
47659;SDS011;33403;43.608;1.458;2023-04-07T11:18:35;4.65;;;2.90;;
47659;SDS011;33403;43.608;1.458;2023-04-07T11:21:01;4.90;;;2.72;;
47659;SDS011;33403;43.608;1.458;2023-04-07T11:23:29;4.63;;;2.60;;
47659;SDS011;33403;43.608;1.458;2023-04-07T11:26:02;4.22;;;2.92;;
47659;SDS011;33403;43.608;1.458;2023-04-07T11:28:29;5.45;;;2.65;;
47659;SDS011;33403;43.608;1.458;2023-04-07T11:30:55;3.53;;;2.70;;
47659;SDS011;33403;43.608;1.458;2023-04-07T11:33:23;5.35;;;2.72;;
47659;SDS011;33403;43.608;1.458;2023-04-07T11:38:19;5.22;;;2.40;;
47659;SDS011;33403;43.608;1.458;2023-04-07T11:40:46;4.32;;;2.67;;
47659;SDS011;33403;43.608;1.458;2023-04-07T11:43:45;4.50;;;2.70;;
47659;SDS011;33403;43.608;1.458;2023-04-07T11:46:13;4.82;;;2.85;;
47659;SDS011;33403;43.608;1.458;2023-04-07T11:48:40;4.07;;;2.90;;
47659;SDS011;33403;43.608;1.458;2023-04-07T11:51:20;4.07;;;2.92;;
47659;SDS011;33403;43.608;1.458;2023-04-07T11:53:55;6.38;;;3.08;;
47659;SDS011;33403;43.608;1.458;2023-04-07T11:56:21;3.25;;;2.60;;
47659;SDS011;33403;43.608;1.458;2023-04-07T11:58:50;6.93;;;3.10;;
47659;SDS011;33403;43.608;1.458;2023-04-07T12:01:17;4.70;;;2.55;;
47659;SDS011;33403;43.608;1.458;2023-04-07T12:06:32;3.13;;;2.42;;
47659;SDS011;33403;43.608;1.458;2023-04-07T12:09:02;4.60;;;2.80;;
47659;SDS011;33403;43.608;1.458;2023-04-07T12:11:31;4.07;;;2.60;;
47659;SDS011;33403;43.608;1.458;2023-04-07T12:13:58;5.38;;;2.92;;
47659;SDS011;33403;43.608;1.458;2023-04-07T12:16:24;3.08;;;2.42;;
47659;SDS011;33403;43.608;1.458;2023-04-07T12:18:50;4.93;;;2.65;;
47659;SDS011;33403;43.608;1.458;2023-04-07T12:21:16;4.25;;;2.20;;
47659;SDS011;33403;43.608;1.458;2023-04-07T12:23:43;3.58;;;2.40;;
47659;SDS011;33403;43.608;1.458;2023-04-07T12:26:09;4.20;;;2.50;;
47659;SDS011;33403;43.608;1.458;2023-04-07T12:28:36;4.65;;;2.20;;
47659;SDS011;33403;43.608;1.458;2023-04-07T12:31:02;3.13;;;2.47;;
47659;SDS011;33403;43.608;1.458;2023-04-07T12:33:28;3.05;;;2.35;;
47659;SDS011;33403;43.608;1.458;2023-04-07T12:35:54;6.45;;;2.60;;
47659;SDS011;33403;43.608;1.458;2023-04-07T12:38:21;4.03;;;2.30;;
47659;SDS011;33403;43.608;1.458;2023-04-07T12:40:47;3.60;;;2.15;;
47659;SDS011;33403;43.608;1.458;2023-04-07T12:43:12;4.30;;;2.30;;
47659;SDS011;33403;43.608;1.458;2023-04-07T12:45:38;2.53;;;2.17;;
47659;SDS011;33403;43.608;1.458;2023-04-07T12:48:04;5.63;;;2.60;;
47659;SDS011;33403;43.608;1.458;2023-04-07T12:50:30;3.45;;;2.25;;
47659;SDS011;33403;43.608;1.458;2023-04-07T12:52:56;5.47;;;2.60;;
47659;SDS011;33403;43.608;1.458;2023-04-07T12:55:23;9.57;;;3.25;;
47659;SDS011;33403;43.608;1.458;2023-04-07T12:57:49;4.07;;;2.40;;
47659;SDS011;33403;43.608;1.458;2023-04-07T13:00:15;6.47;;;2.10;;
47659;SDS011;33403;43.608;1.458;2023-04-07T13:02:41;3.75;;;2.13;;
47659;SDS011;33403;43.608;1.458;2023-04-07T13:05:07;4.05;;;2.45;;
47659;SDS011;33403;43.608;1.458;2023-04-07T13:07:33;5.70;;;2.45;;
47659;SDS011;33403;43.608;1.458;2023-04-07T13:10:00;4.53;;;2.10;;
47659;SDS011;33403;43.608;1.458;2023-04-07T13:12:26;3.55;;;2.30;;
47659;SDS011;33403;43.608;1.458;2023-04-07T13:14:52;2.63;;;2.17;;
47659;SDS011;33403;43.608;1.458;2023-04-07T13:17:18;3.10;;;1.88;;
47659;SDS011;33403;43.608;1.458;2023-04-07T13:19:44;2.78;;;2.10;;
47659;SDS011;33403;43.608;1.458;2023-04-07T13:22:12;4.20;;;2.05;;
47659;SDS011;33403;43.608;1.458;2023-04-07T13:24:38;4.90;;;2.30;;
47659;SDS011;33403;43.608;1.458;2023-04-07T13:27:04;4.07;;;1.92;;
47659;SDS011;33403;43.608;1.458;2023-04-07T13:29:30;2.78;;;2.00;;
47659;SDS011;33403;43.608;1.458;2023-04-07T13:32:08;2.45;;;2.05;;
47659;SDS011;33403;43.608;1.458;2023-04-07T13:34:35;3.15;;;1.90;;
47659;SDS011;33403;43.608;1.458;2023-04-07T13:37:01;2.72;;;1.98;;
47659;SDS011;33403;43.608;1.458;2023-04-07T13:39:28;3.25;;;1.70;;
47659;SDS011;33403;43.608;1.458;2023-04-07T13:41:55;2.90;;;1.80;;
47659;SDS011;33403;43.608;1.458;2023-04-07T13:44:21;2.40;;;1.70;;
47659;SDS011;33403;43.608;1.458;2023-04-07T13:46:51;4.18;;;2.10;;
47659;SDS011;33403;43.608;1.458;2023-04-07T13:49:17;3.35;;;1.90;;
47659;SDS011;33403;43.608;1.458;2023-04-07T13:51:43;2.60;;;2.10;;
47659;SDS011;33403;43.608;1.458;2023-04-07T13:54:08;3.10;;;1.77;;
47659;SDS011;33403;43.608;1.458;2023-04-07T13:56:36;1.90;;;1.60;;
47659;SDS011;33403;43.608;1.458;2023-04-07T13:59:05;2.55;;;1.40;;
47659;SDS011;33403;43.608;1.458;2023-04-07T14:01:32;2.65;;;1.55;;
47659;SDS011;33403;43.608;1.458;2023-04-07T14:03:59;2.97;;;1.52;;
47659;SDS011;33403;43.608;1.458;2023-04-07T14:06:26;2.80;;;1.30;;
47659;SDS011;33403;43.608;1.458;2023-04-07T14:08:52;4.20;;;1.42;;
47659;SDS011;33403;43.608;1.458;2023-04-07T14:11:18;4.20;;;1.30;;
47659;SDS011;33403;43.608;1.458;2023-04-07T14:13:46;2.40;;;1.50;;
47659;SDS011;33403;43.608;1.458;2023-04-07T14:16:11;1.77;;;1.20;;
47659;SDS011;33403;43.608;1.458;2023-04-07T14:18:37;2.95;;;1.38;;
47659;SDS011;33403;43.608;1.458;2023-04-07T14:21:03;3.70;;;1.40;;
47659;SDS011;33403;43.608;1.458;2023-04-07T14:23:30;1.95;;;1.45;;
47659;SDS011;33403;43.608;1.458;2023-04-07T14:25:58;1.65;;;1.30;;
47659;SDS011;33403;43.608;1.458;2023-04-07T14:28:25;2.80;;;1.50;;
47659;SDS011;33403;43.608;1.458;2023-04-07T14:30:51;5.68;;;1.70;;
47659;SDS011;33403;43.608;1.458;2023-04-07T14:33:18;2.70;;;1.30;;
47659;SDS011;33403;43.608;1.458;2023-04-07T14:35:44;3.67;;;1.55;;
47659;SDS011;33403;43.608;1.458;2023-04-07T14:38:10;1.80;;;1.50;;
47659;SDS011;33403;43.608;1.458;2023-04-07T14:40:36;3.72;;;1.48;;
47659;SDS011;33403;43.608;1.458;2023-04-07T14:43:01;2.15;;;1.50;;
47659;SDS011;33403;43.608;1.458;2023-04-07T14:45:28;1.52;;;1.42;;
47659;SDS011;33403;43.608;1.458;2023-04-07T14:47:54;3.13;;;1.40;;
47659;SDS011;33403;43.608;1.458;2023-04-07T14:50:21;1.48;;;1.38;;
47659;SDS011;33403;43.608;1.458;2023-04-07T14:52:47;1.48;;;1.35;;
47659;SDS011;33403;43.608;1.458;2023-04-07T14:55:13;4.70;;;1.58;;
47659;SDS011;33403;43.608;1.458;2023-04-07T14:57:39;1.95;;;1.50;;
47659;SDS011;33403;43.608;1.458;2023-04-07T15:00:05;2.08;;;1.40;;
47659;SDS011;33403;43.608;1.458;2023-04-07T15:02:31;1.20;;;1.10;;
47659;SDS011;33403;43.608;1.458;2023-04-07T15:04:58;2.30;;;1.30;;
47659;SDS011;33403;43.608;1.458;2023-04-07T15:07:24;1.77;;;1.58;;
47659;SDS011;33403;43.608;1.458;2023-04-07T15:09:50;1.38;;;1.17;;
47659;SDS011;33403;43.608;1.458;2023-04-07T15:12:15;2.05;;;1.33;;
47659;SDS011;33403;43.608;1.458;2023-04-07T15:14:41;2.35;;;1.40;;